createdAt,value
2017-11-30T00:01:22.691Z,92.80
2017-11-30T00:03:51.074Z,93.10
2017-11-30T00:06:19.469Z,93.20
2017-11-30T00:08:48.170Z,93.10
2017-11-30T00:11:15.798Z,93.10
2017-11-30T00:13:43.433Z,93.00
2017-11-30T00:16:11.106Z,93.00
2017-11-30T00:18:38.725Z,93.20
2017-11-30T00:21:07.147Z,93.30
2017-11-30T00:23:34.787Z,93.60
2017-11-30T00:26:02.551Z,93.70
2017-11-30T00:28:30.169Z,93.70
2017-11-30T00:30:57.784Z,93.70
2017-11-30T00:33:26.307Z,93.70
2017-11-30T00:35:53.952Z,93.70
2017-11-30T00:38:21.622Z,93.80
2017-11-30T00:40:49.273Z,93.90
2017-11-30T00:43:29.152Z,94.00
2017-11-30T00:45:56.816Z,93.80
2017-11-30T00:48:24.444Z,93.70
2017-11-30T00:50:52.883Z,93.60
2017-11-30T00:53:20.503Z,93.60
2017-11-30T00:55:48.906Z,93.50
2017-11-30T00:58:16.518Z,93.50
2017-11-30T01:00:44.415Z,93.90
2017-11-30T01:03:12.047Z,93.80
2017-11-30T01:05:39.681Z,93.80
2017-11-30T01:08:07.341Z,93.80
2017-11-30T01:10:34.971Z,93.70
2017-11-30T01:13:03.392Z,93.90
2017-11-30T01:15:30.996Z,93.90
2017-11-30T01:17:58.871Z,93.70
2017-11-30T01:20:26.501Z,93.70
2017-11-30T01:22:55.768Z,93.70
2017-11-30T01:25:24.172Z,94.10
2017-11-30T01:27:51.810Z,94.00
2017-11-30T01:30:19.460Z,94.30
2017-11-30T01:32:47.092Z,94.40
2017-11-30T01:35:14.740Z,94.40
2017-11-30T01:37:42.382Z,94.40
2017-11-30T01:40:10.794Z,94.30
2017-11-30T01:42:38.405Z,94.30
2017-11-30T01:45:06.428Z,94.30
2017-11-30T01:47:34.086Z,94.50
2017-11-30T01:50:01.725Z,94.70
2017-11-30T01:52:29.371Z,94.80
2017-11-30T01:54:57.002Z,94.80
2017-11-30T01:57:24.700Z,94.80
2017-11-30T01:59:52.315Z,94.70
2017-11-30T02:02:21.018Z,94.90
2017-11-30T02:04:48.628Z,94.90
2017-11-30T02:07:16.264Z,95.00
2017-11-30T02:09:44.027Z,95.10
2017-11-30T02:12:11.661Z,95.10
2017-11-30T02:14:40.052Z,95.60
2017-11-30T02:17:08.715Z,96.10
2017-11-30T02:19:36.392Z,96.10
2017-11-30T02:22:04.047Z,96.40
2017-11-30T02:24:31.672Z,96.60
2017-11-30T02:26:59.636Z,96.70
2017-11-30T02:29:27.234Z,96.80
2017-11-30T02:31:55.170Z,97.20
2017-11-30T02:34:23.140Z,97.10
2017-11-30T02:36:50.796Z,97.30
2017-11-30T02:39:19.167Z,97.40
2017-11-30T02:41:47.599Z,97.40
2017-11-30T02:44:15.257Z,97.40
2017-11-30T02:46:42.901Z,97.60
2017-11-30T02:49:11.319Z,97.90
2017-11-30T02:51:38.974Z,97.90
2017-11-30T02:54:06.647Z,98.00
2017-11-30T02:56:34.241Z,98.00
2017-11-30T02:59:01.899Z,98.10
2017-11-30T03:01:29.553Z,98.20
2017-11-30T03:03:57.841Z,98.20
2017-11-30T03:06:25.528Z,98.20
2017-11-30T03:08:53.134Z,98.20
2017-11-30T03:11:20.798Z,98.10
2017-11-30T03:13:48.434Z,98.00
2017-11-30T03:16:16.375Z,98.00
2017-11-30T03:18:43.976Z,98.00
2017-11-30T03:21:11.567Z,98.00
2017-11-30T03:23:39.234Z,98.00
2017-11-30T03:26:07.609Z,97.90
2017-11-30T03:28:36.057Z,97.80
2017-11-30T03:31:03.681Z,97.80
2017-11-30T03:33:31.302Z,97.80
2017-11-30T03:35:58.950Z,97.70
2017-11-30T03:38:26.634Z,97.60
2017-11-30T03:40:54.274Z,97.50
2017-11-30T03:43:21.886Z,97.40
2017-11-30T03:45:50.306Z,97.20
2017-11-30T03:48:17.982Z,97.10
2017-11-30T03:50:45.604Z,96.90
2017-11-30T03:53:13.275Z,96.90
2017-11-30T03:55:41.701Z,96.90
2017-11-30T03:58:09.337Z,96.90
2017-11-30T04:00:37.761Z,96.80
2017-11-30T04:03:05.395Z,96.80
2017-11-30T04:05:33.395Z,96.90
2017-11-30T04:08:01.010Z,96.90
2017-11-30T04:10:28.642Z,97.00
2017-11-30T04:12:56.285Z,96.90
2017-11-30T04:15:23.887Z,96.90
2017-11-30T04:17:51.560Z,96.80
2017-11-30T04:20:19.215Z,96.80
2017-11-30T04:22:47.008Z,96.70
2017-11-30T04:25:14.641Z,96.60
2017-11-30T04:27:42.279Z,96.50
2017-11-30T04:30:09.929Z,96.60
2017-11-30T04:32:38.320Z,96.60
2017-11-30T04:35:05.957Z,96.50
2017-11-30T04:37:33.590Z,96.60
2017-11-30T04:40:01.219Z,96.60
2017-11-30T04:42:28.813Z,96.50
2017-11-30T04:44:56.476Z,96.50
2017-11-30T04:47:24.131Z,96.40
2017-11-30T04:49:51.793Z,96.50
2017-11-30T04:52:19.403Z,96.40
2017-11-30T04:54:47.087Z,96.50
2017-11-30T04:57:15.666Z,96.40
2017-11-30T04:59:43.287Z,96.30
2017-11-30T05:02:10.916Z,96.40
2017-11-30T05:04:39.423Z,96.30
2017-11-30T05:07:07.039Z,96.30
2017-11-30T05:09:34.742Z,96.30
2017-11-30T05:12:03.177Z,96.30
2017-11-30T05:14:30.910Z,96.30
2017-11-30T05:16:58.614Z,96.30
2017-11-30T05:19:26.219Z,96.30
2017-11-30T05:21:54.636Z,96.40
2017-11-30T05:24:22.226Z,96.40
2017-11-30T05:26:49.898Z,96.40
2017-11-30T05:29:17.518Z,96.40
2017-11-30T05:31:45.903Z,96.40
2017-11-30T05:34:14.309Z,96.40
2017-11-30T05:36:41.917Z,96.40
2017-11-30T05:39:09.558Z,96.40
2017-11-30T05:41:37.213Z,96.40
2017-11-30T05:44:04.963Z,96.40
2017-11-30T05:46:32.607Z,96.30
2017-11-30T05:49:00.975Z,96.20
2017-11-30T05:51:28.629Z,96.20
2017-11-30T05:53:56.638Z,96.20
2017-11-30T05:56:25.041Z,96.20
2017-11-30T05:58:52.661Z,96.20
2017-11-30T06:01:20.324Z,96.30
2017-11-30T06:03:47.977Z,96.40
2017-11-30T06:06:15.633Z,96.40
2017-11-30T06:08:43.297Z,96.40
2017-11-30T06:11:10.922Z,96.40
2017-11-30T06:13:39.344Z,96.40
2017-11-30T06:16:07.038Z,96.40
2017-11-30T06:18:34.680Z,96.40
2017-11-30T06:21:02.290Z,96.40
2017-11-30T06:23:30.100Z,96.40
2017-11-30T06:25:57.777Z,96.40
2017-11-30T06:28:25.348Z,96.40
2017-11-30T06:30:52.990Z,96.30
2017-11-30T06:33:20.633Z,96.40
2017-11-30T06:35:49.046Z,96.80
2017-11-30T06:38:16.684Z,96.40
2017-11-30T06:40:44.360Z,96.40
2017-11-30T06:43:12.771Z,96.40
2017-11-30T06:45:40.406Z,96.40
2017-11-30T06:48:08.843Z,96.50
2017-11-30T06:50:36.448Z,96.50
2017-11-30T06:53:04.851Z,96.50
2017-11-30T06:55:32.506Z,96.50
2017-11-30T06:58:00.908Z,96.50
2017-11-30T07:00:28.547Z,96.50
2017-11-30T07:02:56.994Z,96.80
2017-11-30T07:05:24.633Z,96.50
2017-11-30T07:07:52.258Z,96.80
2017-11-30T07:10:20.652Z,96.60
2017-11-30T07:12:49.080Z,96.70
2017-11-30T07:15:16.715Z,96.70
2017-11-30T07:17:44.503Z,96.70
2017-11-30T07:20:12.125Z,96.60
2017-11-30T07:22:39.731Z,96.90
2017-11-30T07:25:07.701Z,96.60
2017-11-30T07:27:35.363Z,96.40
2017-11-30T07:30:02.989Z,96.50
2017-11-30T07:32:30.671Z,96.60
2017-11-30T07:34:59.049Z,96.60
2017-11-30T07:37:26.750Z,96.50
2017-11-30T07:39:54.368Z,96.60
2017-11-30T07:42:22.047Z,96.60
2017-11-30T07:44:50.489Z,96.50
2017-11-30T07:47:18.134Z,96.50
2017-11-30T07:49:45.781Z,96.50
2017-11-30T07:52:15.465Z,96.50
2017-11-30T07:54:43.107Z,96.50
2017-11-30T07:57:10.728Z,96.60
2017-11-30T07:59:38.377Z,96.50
2017-11-30T08:02:06.007Z,96.50
2017-11-30T08:04:33.642Z,96.50
2017-11-30T08:07:01.429Z,96.50
2017-11-30T08:09:29.060Z,96.90
2017-11-30T08:11:57.492Z,96.60
2017-11-30T08:14:25.111Z,96.60
2017-11-30T08:16:52.763Z,96.50
2017-11-30T08:19:20.424Z,96.40
2017-11-30T08:21:48.032Z,96.50
2017-11-30T08:24:16.056Z,96.50
2017-11-30T08:26:43.643Z,96.50
2017-11-30T08:29:12.039Z,96.30
2017-11-30T08:31:40.472Z,96.10
2017-11-30T08:34:08.111Z,96.10
2017-11-30T08:36:35.757Z,96.00
2017-11-30T08:39:04.196Z,95.80
2017-11-30T08:41:31.864Z,95.80
2017-11-30T08:43:59.469Z,95.50
2017-11-30T08:46:27.878Z,95.40
2017-11-30T08:48:55.571Z,95.20
2017-11-30T08:51:23.198Z,95.10
2017-11-30T08:53:51.601Z,94.80
2017-11-30T08:56:19.241Z,94.80
2017-11-30T08:58:47.627Z,94.80
2017-11-30T09:01:16.072Z,94.70
2017-11-30T09:03:43.721Z,94.70
2017-11-30T09:06:11.351Z,94.50
2017-11-30T09:08:38.985Z,94.40
2017-11-30T09:11:06.611Z,94.40
2017-11-30T09:13:34.233Z,94.40
2017-11-30T09:16:02.693Z,94.50
2017-11-30T09:18:30.330Z,94.50
2017-11-30T09:20:58.342Z,94.60
2017-11-30T09:23:26.731Z,94.80
2017-11-30T09:25:54.338Z,94.70
2017-11-30T09:28:22.005Z,94.50
2017-11-30T09:30:49.596Z,94.30
2017-11-30T09:33:17.266Z,93.90
2017-11-30T09:35:44.900Z,93.70
2017-11-30T09:38:12.544Z,93.20
2017-11-30T09:40:40.206Z,92.70
2017-11-30T09:43:08.732Z,93.10
2017-11-30T09:45:36.570Z,92.60
2017-11-30T09:48:04.965Z,92.10
2017-11-30T09:50:32.610Z,92.00
2017-11-30T09:53:00.328Z,91.20
2017-11-30T09:55:27.973Z,91.20
2017-11-30T09:57:55.613Z,91.50
2017-11-30T10:00:23.273Z,90.40
2017-11-30T10:02:50.916Z,90.00
2017-11-30T10:05:18.518Z,88.40
2017-11-30T10:07:47.265Z,89.60
2017-11-30T10:10:14.901Z,89.50
2017-11-30T10:12:42.505Z,86.80
2017-11-30T10:15:10.156Z,88.00
2017-11-30T10:17:37.770Z,89.20
2017-11-30T10:20:06.483Z,88.60
2017-11-30T10:22:34.145Z,88.50
2017-11-30T10:25:01.846Z,89.20
2017-11-30T10:27:29.507Z,89.20
2017-11-30T10:29:57.136Z,88.60
2017-11-30T10:32:25.884Z,87.90
2017-11-30T10:34:53.491Z,87.80
2017-11-30T10:37:21.886Z,83.70
2017-11-30T10:39:49.831Z,83.70
2017-11-30T10:42:17.467Z,84.40
2017-11-30T10:44:45.096Z,85.90
2017-11-30T10:47:13.540Z,86.20
2017-11-30T10:49:41.198Z,86.20
2017-11-30T10:52:08.826Z,86.50
2017-11-30T10:54:36.496Z,87.00
2017-11-30T10:57:04.112Z,88.10
2017-11-30T10:59:31.761Z,86.80
2017-11-30T11:01:59.420Z,86.20
2017-11-30T11:04:27.038Z,85.30
2017-11-30T11:06:55.446Z,85.90
2017-11-30T11:09:23.123Z,85.90
2017-11-30T11:11:50.768Z,85.70
2017-11-30T11:14:18.444Z,85.70
2017-11-30T11:16:46.061Z,83.70
2017-11-30T11:19:13.775Z,83.50
2017-11-30T11:21:41.414Z,82.80
2017-11-30T11:24:09.891Z,84.10
2017-11-30T11:26:37.508Z,83.30
2017-11-30T11:29:05.141Z,84.90
2017-11-30T11:31:33.568Z,85.30
2017-11-30T11:34:01.200Z,85.30
2017-11-30T11:36:28.832Z,87.70
2017-11-30T11:38:57.312Z,89.10
2017-11-30T11:41:26.489Z,89.70
2017-11-30T11:43:54.122Z,89.70
2017-11-30T11:46:21.826Z,89.90
2017-11-30T11:48:49.490Z,90.20
2017-11-30T11:51:17.128Z,89.90
2017-11-30T11:53:44.801Z,89.90
2017-11-30T11:56:12.458Z,90.00
2017-11-30T11:58:40.812Z,89.50
2017-11-30T12:01:08.417Z,89.60
2017-11-30T12:03:36.060Z,89.90
2017-11-30T12:06:04.433Z,89.40
2017-11-30T12:08:32.101Z,89.30
2017-11-30T12:10:59.739Z,87.50
2017-11-30T12:13:27.366Z,87.30
2017-11-30T12:15:54.999Z,88.40
2017-11-30T12:18:23.435Z,86.20
2017-11-30T12:20:52.165Z,86.10
2017-11-30T12:23:20.543Z,88.10
2017-11-30T12:25:48.189Z,87.10
2017-11-30T12:28:15.852Z,87.00
2017-11-30T12:30:43.449Z,87.40
2017-11-30T12:33:11.859Z,86.80
2017-11-30T12:35:39.450Z,86.70
2017-11-30T12:38:07.127Z,87.10
2017-11-30T12:40:34.772Z,86.40
2017-11-30T12:43:02.692Z,85.70
2017-11-30T12:45:31.076Z,86.10
2017-11-30T12:47:58.689Z,85.60
2017-11-30T12:50:26.358Z,85.90
2017-11-30T12:52:53.970Z,86.90
2017-11-30T12:55:21.608Z,86.10
2017-11-30T12:57:49.252Z,86.50
2017-11-30T13:00:16.876Z,86.40
2017-11-30T13:02:44.801Z,85.60
2017-11-30T13:05:14.168Z,86.10
2017-11-30T13:07:42.554Z,85.70
2017-11-30T13:10:10.965Z,86.20
2017-11-30T13:12:38.576Z,86.00
2017-11-30T13:15:06.197Z,86.20
2017-11-30T13:17:33.839Z,86.00
2017-11-30T13:20:02.210Z,84.60
2017-11-30T13:22:29.871Z,84.60
2017-11-30T13:24:57.506Z,84.30
2017-11-30T13:27:25.176Z,84.30
2017-11-30T13:29:52.815Z,83.30
2017-11-30T13:32:20.479Z,84.90
2017-11-30T13:34:48.161Z,83.30
2017-11-30T13:37:15.772Z,82.40
2017-11-30T13:39:43.402Z,81.80
2017-11-30T13:42:11.020Z,82.90
2017-11-30T13:44:38.636Z,83.60
2017-11-30T13:47:06.286Z,83.00
2017-11-30T13:49:33.963Z,83.20
2017-11-30T13:52:01.607Z,84.20
2017-11-30T13:54:29.226Z,84.30
2017-11-30T13:56:56.888Z,84.70
2017-11-30T13:59:24.507Z,85.80
2017-11-30T14:01:52.168Z,86.10
2017-11-30T14:04:19.812Z,86.10
2017-11-30T14:06:48.224Z,85.80
2017-11-30T14:09:15.949Z,85.70
2017-11-30T14:11:43.609Z,85.30
2017-11-30T14:14:11.276Z,85.90
2017-11-30T14:16:38.911Z,85.70
2017-11-30T14:19:06.497Z,85.70
2017-11-30T14:21:34.151Z,85.50
2017-11-30T14:24:02.459Z,86.20
2017-11-30T14:26:30.139Z,85.60
2017-11-30T14:28:57.743Z,85.60
2017-11-30T14:31:25.352Z,85.80
2017-11-30T14:33:52.976Z,86.20
2017-11-30T14:36:20.596Z,86.00
2017-11-30T14:38:48.201Z,85.80
2017-11-30T14:41:16.652Z,85.70
2017-11-30T14:43:44.268Z,85.70
2017-11-30T14:46:11.890Z,85.60
2017-11-30T14:48:39.589Z,85.30
2017-11-30T14:51:07.241Z,85.70
2017-11-30T14:53:34.919Z,86.30
2017-11-30T14:56:02.846Z,86.90
2017-11-30T14:58:31.208Z,87.00
2017-11-30T15:00:58.871Z,86.90
2017-11-30T15:03:26.635Z,87.30
2017-11-30T15:05:54.265Z,87.30
2017-11-30T15:08:21.919Z,87.20
2017-11-30T15:10:49.647Z,87.80
2017-11-30T15:13:18.021Z,88.50
2017-11-30T15:15:45.687Z,88.10
2017-11-30T15:18:13.507Z,88.80
2017-11-30T15:20:41.158Z,88.60
2017-11-30T15:23:09.593Z,88.80
2017-11-30T15:25:37.397Z,88.80
2017-11-30T15:28:05.014Z,89.20
2017-11-30T15:30:32.690Z,90.00
2017-11-30T15:33:00.340Z,90.00
2017-11-30T15:35:27.958Z,89.70
2017-11-30T15:37:55.602Z,90.00
2017-11-30T15:40:23.210Z,89.70
2017-11-30T15:42:51.641Z,90.00
2017-11-30T15:45:19.250Z,90.00
2017-11-30T15:47:46.893Z,89.60
2017-11-30T15:50:14.594Z,89.80
2017-11-30T15:52:42.970Z,89.90
2017-11-30T15:55:11.376Z,89.80
2017-11-30T15:57:39.030Z,89.80
2017-11-30T16:00:07.479Z,90.00
2017-11-30T16:02:35.081Z,90.00
2017-11-30T16:05:03.511Z,89.70
2017-11-30T16:07:31.162Z,89.60
2017-11-30T16:09:58.757Z,89.60
2017-11-30T16:12:26.409Z,89.20
2017-11-30T16:14:54.078Z,88.80
2017-11-30T16:17:22.520Z,89.50
2017-11-30T16:19:50.927Z,90.00
2017-11-30T16:22:18.564Z,90.00
2017-11-30T16:24:46.992Z,90.20
2017-11-30T16:27:14.672Z,90.20
2017-11-30T16:29:42.280Z,90.10
2017-11-30T16:32:10.677Z,89.90
2017-11-30T16:34:39.081Z,89.20
2017-11-30T16:37:06.721Z,89.10
2017-11-30T16:39:34.473Z,89.20
2017-11-30T16:42:02.074Z,89.20
2017-11-30T16:44:29.685Z,89.60
2017-11-30T16:46:57.326Z,89.70
2017-11-30T16:49:24.930Z,90.00
2017-11-30T16:51:52.590Z,90.00
2017-11-30T16:54:20.206Z,90.00
2017-11-30T16:56:47.854Z,90.20
2017-11-30T16:59:16.272Z,90.00
2017-11-30T17:01:43.954Z,89.90
2017-11-30T17:04:11.638Z,89.50
2017-11-30T17:06:39.302Z,90.00
2017-11-30T17:09:06.896Z,90.00
2017-11-30T17:11:35.441Z,89.50
2017-11-30T17:14:03.077Z,89.50
2017-11-30T17:16:31.514Z,89.50
2017-11-30T17:18:59.459Z,89.00
2017-11-30T17:21:27.120Z,89.40
2017-11-30T17:23:54.752Z,88.80
2017-11-30T17:26:22.414Z,88.30
2017-11-30T17:28:50.061Z,88.10
2017-11-30T17:31:17.798Z,88.40
2017-11-30T17:33:45.432Z,88.50
2017-11-30T17:36:13.084Z,88.30
2017-11-30T17:38:42.112Z,88.60
2017-11-30T17:41:10.530Z,88.60
2017-11-30T17:43:38.973Z,89.00
2017-11-30T17:46:06.563Z,89.00
2017-11-30T17:48:34.165Z,88.80
2017-11-30T17:51:01.818Z,89.60
2017-11-30T17:53:29.486Z,89.80
2017-11-30T17:55:57.116Z,90.00
2017-11-30T17:58:24.733Z,90.30
2017-11-30T18:00:53.114Z,89.80
2017-11-30T18:03:20.775Z,89.80
2017-11-30T18:05:49.195Z,89.90
2017-11-30T18:08:16.845Z,89.90
2017-11-30T18:10:44.529Z,89.70
2017-11-30T18:13:12.168Z,89.90
2017-11-30T18:15:39.796Z,89.90
2017-11-30T18:18:07.460Z,90.00
2017-11-30T18:20:35.074Z,90.00
2017-11-30T18:23:03.501Z,89.40
2017-11-30T18:25:31.167Z,89.40
2017-11-30T18:27:58.780Z,89.90
2017-11-30T18:30:26.439Z,89.40
2017-11-30T18:32:54.816Z,89.30
2017-11-30T18:35:22.524Z,89.20
2017-11-30T18:37:50.154Z,89.80
2017-11-30T18:40:17.808Z,89.10
2017-11-30T18:42:45.432Z,88.60
2017-11-30T18:45:13.051Z,88.50
2017-11-30T18:47:47.875Z,89.50
2017-11-30T18:50:15.663Z,90.10
2017-11-30T18:52:44.089Z,89.50
2017-11-30T18:55:11.727Z,89.50
2017-11-30T18:57:40.163Z,88.50
2017-11-30T19:00:07.844Z,88.40
2017-11-30T19:02:35.531Z,88.80
2017-11-30T19:05:03.345Z,89.00
2017-11-30T19:07:31.009Z,89.10
2017-11-30T19:09:58.621Z,88.90
2017-11-30T19:12:26.257Z,88.80
2017-11-30T19:14:53.948Z,89.00
2017-11-30T19:17:21.619Z,89.10
2017-11-30T19:19:49.239Z,89.20
2017-11-30T19:22:16.871Z,90.10
2017-11-30T19:24:44.513Z,89.40
2017-11-30T19:27:12.882Z,90.00
2017-11-30T19:29:41.421Z,90.00
2017-11-30T19:32:09.086Z,90.30
2017-11-30T19:34:37.524Z,90.10
2017-11-30T19:37:05.150Z,90.10
2017-11-30T19:39:32.931Z,90.60
2017-11-30T19:42:00.554Z,90.20
2017-11-30T19:44:28.184Z,90.70
2017-11-30T19:46:55.906Z,90.70
2017-11-30T19:49:24.378Z,90.60
2017-11-30T19:51:52.038Z,90.50
2017-11-30T19:54:19.680Z,90.40
2017-11-30T19:56:47.315Z,90.40
2017-11-30T19:59:15.002Z,90.40
2017-11-30T20:01:42.664Z,90.40
2017-11-30T20:04:10.331Z,90.10
2017-11-30T20:06:37.953Z,90.10
2017-11-30T20:09:05.701Z,90.30
2017-11-30T20:11:33.347Z,90.10
2017-11-30T20:14:01.028Z,90.00
2017-11-30T20:16:28.643Z,89.30
2017-11-30T20:18:56.293Z,89.90
2017-11-30T20:21:23.965Z,89.70
2017-11-30T20:23:51.578Z,90.40
2017-11-30T20:26:19.531Z,89.40
2017-11-30T20:28:47.734Z,89.40
2017-11-30T20:31:15.381Z,89.70
2017-11-30T20:33:43.006Z,90.00
2017-11-30T20:36:10.747Z,90.20
2017-11-30T20:38:38.417Z,89.60
2017-11-30T20:41:06.077Z,89.80
2017-11-30T20:43:33.740Z,90.10
2017-11-30T20:46:01.346Z,89.30
2017-11-30T20:48:29.051Z,89.40
2017-11-30T20:50:57.533Z,90.00
2017-11-30T20:53:25.936Z,90.20
2017-11-30T20:55:54.033Z,90.20
2017-11-30T20:58:21.673Z,90.00
2017-11-30T21:00:49.348Z,90.00
2017-11-30T21:03:17.051Z,90.40
2017-11-30T21:05:44.699Z,90.00
2017-11-30T21:08:12.313Z,90.10
2017-11-30T21:10:43.383Z,90.40
2017-11-30T21:13:11.791Z,90.50
2017-11-30T21:15:39.705Z,90.50
2017-11-30T21:18:08.516Z,90.50
2017-11-30T21:20:36.904Z,90.50
2017-11-30T21:23:04.554Z,90.50
2017-11-30T21:25:32.191Z,90.70
2017-11-30T21:27:59.801Z,90.50
2017-11-30T21:30:28.209Z,90.20
2017-11-30T21:32:55.871Z,90.20
2017-11-30T21:35:23.516Z,90.30
2017-11-30T21:37:51.906Z,90.40
2017-11-30T21:40:20.312Z,90.60
2017-11-30T21:42:48.050Z,90.60
2017-11-30T21:45:16.455Z,90.60
2017-11-30T21:47:44.206Z,90.60
2017-11-30T21:50:11.845Z,90.40
2017-11-30T21:52:39.497Z,90.50
2017-11-30T21:55:07.100Z,90.40
2017-11-30T21:57:35.558Z,90.70
2017-11-30T22:00:03.373Z,90.70
2017-11-30T22:02:31.861Z,90.70
2017-11-30T22:04:59.461Z,90.70
2017-11-30T22:07:27.112Z,90.90
2017-11-30T22:09:54.721Z,90.90
2017-11-30T22:12:22.367Z,90.80
2017-11-30T22:14:50.061Z,91.10
2017-11-30T22:17:17.672Z,91.10
2017-11-30T22:19:45.308Z,91.00
2017-11-30T22:22:13.697Z,91.00
2017-11-30T22:24:42.069Z,91.40
2017-11-30T22:27:10.489Z,91.50
2017-11-30T22:29:38.104Z,91.30
2017-11-30T22:32:05.737Z,91.30
2017-11-30T22:34:33.355Z,91.30
2017-11-30T22:37:01.732Z,91.70
2017-11-30T22:39:29.366Z,91.30
2017-11-30T22:41:56.998Z,91.30
2017-11-30T22:44:24.650Z,91.30
2017-11-30T22:46:53.020Z,91.40
2017-11-30T22:49:20.705Z,91.70
2017-11-30T22:51:48.450Z,91.30
2017-11-30T22:54:16.084Z,91.40
2017-11-30T22:56:43.715Z,91.50
2017-11-30T22:59:11.412Z,91.40
2017-11-30T23:01:39.066Z,91.40
2017-11-30T23:04:06.759Z,91.60
2017-11-30T23:06:34.409Z,91.70
2017-11-30T23:09:02.052Z,91.70
2017-11-30T23:11:29.693Z,91.60
2017-11-30T23:13:58.066Z,91.80
2017-11-30T23:16:25.963Z,91.80
2017-11-30T23:18:54.385Z,91.90
2017-11-30T23:21:21.989Z,91.80
2017-11-30T23:23:49.631Z,91.90
2017-11-30T23:26:17.267Z,91.80
2017-11-30T23:28:44.945Z,91.80
2017-11-30T23:31:12.542Z,91.80
2017-11-30T23:33:40.183Z,92.00
2017-11-30T23:36:07.792Z,92.00
2017-11-30T23:38:36.185Z,91.80
2017-11-30T23:41:03.932Z,91.80
2017-11-30T23:43:31.543Z,91.80
2017-11-30T23:45:59.152Z,92.00
2017-11-30T23:48:26.813Z,92.20
2017-11-30T23:50:54.764Z,92.10
2017-11-30T23:53:23.142Z,92.10
2017-11-30T23:55:50.762Z,92.10
2017-11-30T23:58:19.167Z,92.30
